sensor_id;sensor_type;location;lat;lon;timestamp;pressure;altitude;pressure_sealevel;temperature;humidity
28701;BME280;15877;52.344;16.790;2022-10-16T00:01:33;100470.24;;;15.86;83.95
28701;BME280;15877;52.344;16.790;2022-10-16T00:04:05;100462.00;;;15.83;84.21
28701;BME280;15877;52.344;16.790;2022-10-16T00:06:37;100458.15;;;15.88;84.33
28701;BME280;15877;52.344;16.790;2022-10-16T00:09:09;100447.04;;;15.93;83.99
28701;BME280;15877;52.344;16.790;2022-10-16T00:11:42;100439.67;;;15.96;84.07
28701;BME280;15877;52.344;16.790;2022-10-16T00:14:15;100441.42;;;15.91;84.55
28701;BME280;15877;52.344;16.790;2022-10-16T00:16:47;100423.08;;;15.77;84.95
28701;BME280;15877;52.344;16.790;2022-10-16T00:19:20;100444.95;;;15.97;84.62
28701;BME280;15877;52.344;16.790;2022-10-16T00:21:51;100442.39;;;16.02;84.82
28701;BME280;15877;52.344;16.790;2022-10-16T00:24:23;100446.57;;;16.08;84.62
28701;BME280;15877;52.344;16.790;2022-10-16T00:26:55;100452.00;;;16.06;84.57
28701;BME280;15877;52.344;16.790;2022-10-16T00:29:27;100456.33;;;15.95;85.28
28701;BME280;15877;52.344;16.790;2022-10-16T00:32:00;100458.47;;;15.88;85.88
28701;BME280;15877;52.344;16.790;2022-10-16T00:34:32;100464.58;;;15.98;85.77
28701;BME280;15877;52.344;16.790;2022-10-16T00:37:05;100454.63;;;15.90;85.48
28701;BME280;15877;52.344;16.790;2022-10-16T00:39:37;100468.58;;;16.04;85.21
28701;BME280;15877;52.344;16.790;2022-10-16T00:42:12;100469.61;;;16.07;85.25
28701;BME280;15877;52.344;16.790;2022-10-16T00:44:49;100463.36;;;16.05;85.30
28701;BME280;15877;52.344;16.790;2022-10-16T00:47:26;100459.77;;;16.09;85.08
28701;BME280;15877;52.344;16.790;2022-10-16T00:50:04;100460.80;;;16.15;84.82
28701;BME280;15877;52.344;16.790;2022-10-16T00:52:41;100462.40;;;16.09;85.53
28701;BME280;15877;52.344;16.790;2022-10-16T00:55:15;100460.16;;;16.10;85.43
28701;BME280;15877;52.344;16.790;2022-10-16T00:57:53;100457.05;;;16.22;85.01
28701;BME280;15877;52.344;16.790;2022-10-16T01:00:33;100454.48;;;16.22;84.63
28701;BME280;15877;52.344;16.790;2022-10-16T01:03:25;100456.96;;;16.14;85.56
28701;BME280;15877;52.344;16.790;2022-10-16T01:06:17;100449.92;;;16.01;85.81
28701;BME280;15877;52.344;16.790;2022-10-16T01:09:00;100461.77;;;16.13;85.78
28701;BME280;15877;52.344;16.790;2022-10-16T01:11:38;100466.17;;;16.26;85.24
28701;BME280;15877;52.344;16.790;2022-10-16T01:14:19;100470.48;;;16.23;85.35
28701;BME280;15877;52.344;16.790;2022-10-16T01:17:00;100471.46;;;16.24;85.55
28701;BME280;15877;52.344;16.790;2022-10-16T01:19:53;100472.02;;;16.25;85.13
28701;BME280;15877;52.344;16.790;2022-10-16T01:22:39;100461.61;;;16.28;85.17
28701;BME280;15877;52.344;16.790;2022-10-16T01:25:19;100464.08;;;16.29;85.06
28701;BME280;15877;52.344;16.790;2022-10-16T01:27:54;100461.20;;;16.29;84.85
28701;BME280;15877;52.344;16.790;2022-10-16T01:30:30;100460.23;;;16.33;84.79
28701;BME280;15877;52.344;16.790;2022-10-16T01:33:10;100462.17;;;16.29;84.67
28701;BME280;15877;52.344;16.790;2022-10-16T01:35:48;100461.36;;;16.31;84.87
28701;BME280;15877;52.344;16.790;2022-10-16T01:38:28;100471.13;;;16.35;84.52
28701;BME280;15877;52.344;16.790;2022-10-16T01:41:08;100461.75;;;16.28;84.48
28701;BME280;15877;52.344;16.790;2022-10-16T01:43:46;100480.19;;;16.29;84.80
28701;BME280;15877;52.344;16.790;2022-10-16T01:46:20;100469.55;;;16.18;85.14
28701;BME280;15877;52.344;16.790;2022-10-16T01:48:53;100485.30;;;16.16;85.82
28701;BME280;15877;52.344;16.790;2022-10-16T01:51:26;100481.38;;;16.14;86.05
28701;BME280;15877;52.344;16.790;2022-10-16T01:54:00;100486.99;;;16.24;85.72
28701;BME280;15877;52.344;16.790;2022-10-16T01:56:33;100486.67;;;16.31;85.41
28701;BME280;15877;52.344;16.790;2022-10-16T01:59:09;100484.98;;;16.39;84.66
28701;BME280;15877;52.344;16.790;2022-10-16T02:01:47;100481.94;;;16.44;84.51
28701;BME280;15877;52.344;16.790;2022-10-16T02:04:26;100477.53;;;16.43;84.35
28701;BME280;15877;52.344;16.790;2022-10-16T02:07:00;100483.55;;;16.43;84.35
28701;BME280;15877;52.344;16.790;2022-10-16T02:09:34;100480.11;;;16.48;84.14
28701;BME280;15877;52.344;16.790;2022-10-16T02:12:13;100480.50;;;16.43;84.37
28701;BME280;15877;52.344;16.790;2022-10-16T02:14:47;100490.27;;;16.47;84.32
28701;BME280;15877;52.344;16.790;2022-10-16T02:17:19;100492.20;;;16.43;84.46
28701;BME280;15877;52.344;16.790;2022-10-16T02:19:53;100497.00;;;16.30;85.00
28701;BME280;15877;52.344;16.790;2022-10-16T02:22:29;100494.84;;;16.40;84.80
28701;BME280;15877;52.344;16.790;2022-10-16T02:25:05;100493.49;;;16.41;84.54
28701;BME280;15877;52.344;16.790;2022-10-16T02:27:42;100493.64;;;16.34;85.35
28701;BME280;15877;52.344;16.790;2022-10-16T02:30:21;100485.55;;;16.41;85.16
28701;BME280;15877;52.344;16.790;2022-10-16T02:32:55;100487.88;;;16.44;84.91
28701;BME280;15877;52.344;16.790;2022-10-16T02:35:29;100486.50;;;16.35;85.58
28701;BME280;15877;52.344;16.790;2022-10-16T02:38:02;100487.55;;;16.35;85.49
28701;BME280;15877;52.344;16.790;2022-10-16T02:40:35;100489.08;;;16.35;85.89
28701;BME280;15877;52.344;16.790;2022-10-16T02:43:08;100493.55;;;16.31;86.21
28701;BME280;15877;52.344;16.790;2022-10-16T02:45:41;100491.95;;;16.36;86.27
28701;BME280;15877;52.344;16.790;2022-10-16T02:48:13;100492.43;;;16.39;86.09
28701;BME280;15877;52.344;16.790;2022-10-16T02:50:46;100491.23;;;16.41;85.96
28701;BME280;15877;52.344;16.790;2022-10-16T02:53:17;100493.98;;;16.49;85.41
28701;BME280;15877;52.344;16.790;2022-10-16T02:55:49;100493.23;;;16.40;86.01
28701;BME280;15877;52.344;16.790;2022-10-16T02:58:21;100497.66;;;16.47;85.72
28701;BME280;15877;52.344;16.790;2022-10-16T03:00:54;100501.91;;;16.48;85.61
28701;BME280;15877;52.344;16.790;2022-10-16T03:03:26;100504.70;;;16.43;85.74
28701;BME280;15877;52.344;16.790;2022-10-16T03:05:58;100501.19;;;16.47;85.53
28701;BME280;15877;52.344;16.790;2022-10-16T03:08:30;100498.94;;;16.51;85.27
28701;BME280;15877;52.344;16.790;2022-10-16T03:11:02;100495.08;;;16.46;85.44
28701;BME280;15877;52.344;16.790;2022-10-16T03:13:34;100494.69;;;16.51;85.21
28701;BME280;15877;52.344;16.790;2022-10-16T03:16:06;100489.73;;;16.52;85.24
28701;BME280;15877;52.344;16.790;2022-10-16T03:18:39;100491.33;;;16.58;84.90
28701;BME280;15877;52.344;16.790;2022-10-16T03:21:11;100490.44;;;16.53;84.91
28701;BME280;15877;52.344;16.790;2022-10-16T03:23:43;100489.81;;;16.51;85.25
28701;BME280;15877;52.344;16.790;2022-10-16T03:26:15;100496.05;;;16.50;85.55
28701;BME280;15877;52.344;16.790;2022-10-16T03:28:47;100503.18;;;16.38;86.19
28701;BME280;15877;52.344;16.790;2022-10-16T03:31:19;100499.55;;;16.41;86.48
28701;BME280;15877;52.344;16.790;2022-10-16T03:33:51;100500.94;;;16.45;86.23
28701;BME280;15877;52.344;16.790;2022-10-16T03:36:23;100505.90;;;16.45;86.13
28701;BME280;15877;52.344;16.790;2022-10-16T03:38:55;100508.39;;;16.42;86.49
28701;BME280;15877;52.344;16.790;2022-10-16T03:41:27;100510.15;;;16.46;86.43
28701;BME280;15877;52.344;16.790;2022-10-16T03:43:59;100513.38;;;16.50;86.20
28701;BME280;15877;52.344;16.790;2022-10-16T03:46:31;100513.51;;;16.43;86.85
28701;BME280;15877;52.344;16.790;2022-10-16T03:49:04;100516.73;;;16.49;86.44
28701;BME280;15877;52.344;16.790;2022-10-16T03:51:39;100524.17;;;16.49;86.77
28701;BME280;15877;52.344;16.790;2022-10-16T03:54:12;100528.89;;;16.44;87.29
28701;BME280;15877;52.344;16.790;2022-10-16T03:56:44;100535.33;;;16.51;87.23
28701;BME280;15877;52.344;16.790;2022-10-16T03:59:16;100535.14;;;16.44;87.69
28701;BME280;15877;52.344;16.790;2022-10-16T04:01:49;100536.28;;;16.46;87.86
28701;BME280;15877;52.344;16.790;2022-10-16T04:04:20;100537.56;;;16.53;87.70
28701;BME280;15877;52.344;16.790;2022-10-16T04:06:53;100540.05;;;16.57;87.48
28701;BME280;15877;52.344;16.790;2022-10-16T04:09:25;100543.98;;;16.54;87.67
28701;BME280;15877;52.344;16.790;2022-10-16T04:11:57;100540.36;;;16.60;87.40
28701;BME280;15877;52.344;16.790;2022-10-16T04:14:29;100543.82;;;16.59;87.84
28701;BME280;15877;52.344;16.790;2022-10-16T04:17:01;100539.80;;;16.55;88.34
28701;BME280;15877;52.344;16.790;2022-10-16T04:19:33;100542.85;;;16.63;88.06
28701;BME280;15877;52.344;16.790;2022-10-16T04:22:05;100543.48;;;16.64;87.57
28701;BME280;15877;52.344;16.790;2022-10-16T04:24:37;100551.34;;;16.65;87.96
28701;BME280;15877;52.344;16.790;2022-10-16T04:27:09;100544.86;;;16.51;87.97
28701;BME280;15877;52.344;16.790;2022-10-16T04:29:44;100562.41;;;16.59;88.56
28701;BME280;15877;52.344;16.790;2022-10-16T04:32:16;100562.23;;;16.65;88.09
28701;BME280;15877;52.344;16.790;2022-10-16T04:34:48;100561.44;;;16.60;88.45
28701;BME280;15877;52.344;16.790;2022-10-16T04:37:24;100564.98;;;16.56;89.06
28701;BME280;15877;52.344;16.790;2022-10-16T04:39:57;100572.27;;;16.63;88.71
28701;BME280;15877;52.344;16.790;2022-10-16T04:42:29;100573.96;;;16.63;89.01
28701;BME280;15877;52.344;16.790;2022-10-16T04:45:01;100576.27;;;16.63;88.91
28701;BME280;15877;52.344;16.790;2022-10-16T04:47:33;100576.11;;;16.63;89.66
28701;BME280;15877;52.344;16.790;2022-10-16T04:50:07;100567.94;;;16.58;89.79
28701;BME280;15877;52.344;16.790;2022-10-16T04:52:39;100566.81;;;16.58;90.14
28701;BME280;15877;52.344;16.790;2022-10-16T04:55:12;100570.89;;;16.54;90.80
28701;BME280;15877;52.344;16.790;2022-10-16T04:57:44;100571.20;;;16.45;91.41
28701;BME280;15877;52.344;16.790;2022-10-16T05:00:16;100568.65;;;16.53;91.23
28701;BME280;15877;52.344;16.790;2022-10-16T05:02:49;100568.33;;;16.63;90.56
28701;BME280;15877;52.344;16.790;2022-10-16T05:05:21;100566.17;;;16.66;89.69
28701;BME280;15877;52.344;16.790;2022-10-16T05:07:54;100559.76;;;16.65;90.01
28701;BME280;15877;52.344;16.790;2022-10-16T05:10:26;100557.42;;;16.75;88.83
28701;BME280;15877;52.344;16.790;2022-10-16T05:12:58;100564.31;;;16.74;88.65
28701;BME280;15877;52.344;16.790;2022-10-16T05:15:31;100576.43;;;16.72;88.79
28701;BME280;15877;52.344;16.790;2022-10-16T05:18:03;100579.39;;;16.66;89.03
28701;BME280;15877;52.344;16.790;2022-10-16T05:20:35;100584.60;;;16.65;89.20
28701;BME280;15877;52.344;16.790;2022-10-16T05:23:09;100589.02;;;16.68;89.11
28701;BME280;15877;52.344;16.790;2022-10-16T05:25:54;100593.25;;;16.70;89.15
28701;BME280;15877;52.344;16.790;2022-10-16T05:28:29;100590.92;;;16.71;89.07
28701;BME280;15877;52.344;16.790;2022-10-16T05:31:05;100587.82;;;16.72;88.84
28701;BME280;15877;52.344;16.790;2022-10-16T05:33:37;100581.88;;;16.71;89.16
28701;BME280;15877;52.344;16.790;2022-10-16T05:36:10;100586.67;;;16.74;89.14
28701;BME280;15877;52.344;16.790;2022-10-16T05:38:43;100594.79;;;16.67;89.69
28701;BME280;15877;52.344;16.790;2022-10-16T05:41:16;100599.35;;;16.63;90.24
28701;BME280;15877;52.344;16.790;2022-10-16T05:43:52;100588.13;;;16.65;89.80
28701;BME280;15877;52.344;16.790;2022-10-16T05:46:24;100582.84;;;16.66;89.94
28701;BME280;15877;52.344;16.790;2022-10-16T05:48:56;100587.80;;;16.69;89.55
28701;BME280;15877;52.344;16.790;2022-10-16T05:51:29;100593.10;;;16.61;90.57
28701;BME280;15877;52.344;16.790;2022-10-16T05:54:01;100590.13;;;16.60;90.43
28701;BME280;15877;52.344;16.790;2022-10-16T05:56:33;100591.19;;;16.59;90.89
28701;BME280;15877;52.344;16.790;2022-10-16T05:59:05;100587.95;;;16.46;91.15
28701;BME280;15877;52.344;16.790;2022-10-16T06:01:39;100603.77;;;16.61;90.81
28701;BME280;15877;52.344;16.790;2022-10-16T06:04:11;100604.08;;;16.67;90.12
28701;BME280;15877;52.344;16.790;2022-10-16T06:06:43;100601.36;;;16.68;90.18
28701;BME280;15877;52.344;16.790;2022-10-16T06:09:15;100601.35;;;16.61;90.78
28701;BME280;15877;52.344;16.790;2022-10-16T06:11:48;100609.45;;;16.64;90.71
28701;BME280;15877;52.344;16.790;2022-10-16T06:14:20;100606.00;;;16.64;90.52
28701;BME280;15877;52.344;16.790;2022-10-16T06:16:52;100608.41;;;16.68;90.08
28701;BME280;15877;52.344;16.790;2022-10-16T06:19:24;100607.13;;;16.75;89.61
28701;BME280;15877;52.344;16.790;2022-10-16T06:21:56;100611.30;;;16.78;89.27
28701;BME280;15877;52.344;16.790;2022-10-16T06:24:29;100610.09;;;16.71;89.76
28701;BME280;15877;52.344;16.790;2022-10-16T06:27:01;100615.54;;;16.68;90.01
28701;BME280;15877;52.344;16.790;2022-10-16T06:29:34;100615.39;;;16.63;90.40
28701;BME280;15877;52.344;16.790;2022-10-16T06:32:06;100618.44;;;16.66;90.40
28701;BME280;15877;52.344;16.790;2022-10-16T06:34:38;100621.71;;;16.67;90.25
28701;BME280;15877;52.344;16.790;2022-10-16T06:37:14;100627.31;;;16.64;90.30
28701;BME280;15877;52.344;16.790;2022-10-16T06:39:45;100643.02;;;16.57;91.05
28701;BME280;15877;52.344;16.790;2022-10-16T06:42:17;100640.63;;;16.65;90.41
28701;BME280;15877;52.344;16.790;2022-10-16T06:44:49;100644.80;;;16.66;90.65
28701;BME280;15877;52.344;16.790;2022-10-16T06:47:21;100643.30;;;16.35;91.76
28701;BME280;15877;52.344;16.790;2022-10-16T06:49:53;100668.11;;;16.53;92.55
28701;BME280;15877;52.344;16.790;2022-10-16T06:52:25;100674.05;;;16.62;92.54
28701;BME280;15877;52.344;16.790;2022-10-16T06:54:59;100673.90;;;16.64;92.96
28701;BME280;15877;52.344;16.790;2022-10-16T06:57:31;100678.46;;;16.61;93.01
28701;BME280;15877;52.344;16.790;2022-10-16T07:00:04;100683.83;;;16.62;93.32
28701;BME280;15877;52.344;16.790;2022-10-16T07:02:37;100688.65;;;16.72;92.50
28701;BME280;15877;52.344;16.790;2022-10-16T07:05:09;100695.95;;;16.84;91.51
28701;BME280;15877;52.344;16.790;2022-10-16T07:07:41;100685.04;;;16.75;91.30
28701;BME280;15877;52.344;16.790;2022-10-16T07:10:13;100703.48;;;16.75;91.67
28701;BME280;15877;52.344;16.790;2022-10-16T07:12:45;100693.79;;;16.80;91.69
28701;BME280;15877;52.344;16.790;2022-10-16T07:15:17;100692.67;;;16.98;90.74
28701;BME280;15877;52.344;16.790;2022-10-16T07:17:49;100691.56;;;16.96;90.54
28701;BME280;15877;52.344;16.790;2022-10-16T07:20:21;100700.45;;;16.88;90.93
28701;BME280;15877;52.344;16.790;2022-10-16T07:22:54;100690.75;;;17.03;90.88
28701;BME280;15877;52.344;16.790;2022-10-16T07:25:26;100692.76;;;17.08;90.70
28701;BME280;15877;52.344;16.790;2022-10-16T07:27:58;100676.48;;;17.11;89.97
28701;BME280;15877;52.344;16.790;2022-10-16T07:30:30;100674.86;;;17.10;89.53
28701;BME280;15877;52.344;16.790;2022-10-16T07:33:02;100686.80;;;17.18;89.47
28701;BME280;15877;52.344;16.790;2022-10-16T07:35:34;100680.55;;;17.26;89.46
28701;BME280;15877;52.344;16.790;2022-10-16T07:38:06;100684.96;;;17.27;89.46
28701;BME280;15877;52.344;16.790;2022-10-16T07:40:38;100675.03;;;17.13;89.41
28701;BME280;15877;52.344;16.790;2022-10-16T07:43:10;100691.23;;;17.17;90.02
28701;BME280;15877;52.344;16.790;2022-10-16T07:45:49;100687.21;;;17.22;89.74
28701;BME280;15877;52.344;16.790;2022-10-16T07:48:29;100684.40;;;17.22;89.44
28701;BME280;15877;52.344;16.790;2022-10-16T07:51:03;100686.33;;;17.18;89.88
28701;BME280;15877;52.344;16.790;2022-10-16T07:53:35;100683.20;;;17.18;89.39
28701;BME280;15877;52.344;16.790;2022-10-16T07:56:08;100701.48;;;17.30;89.45
28701;BME280;15877;52.344;16.790;2022-10-16T07:58:40;100705.24;;;17.39;88.39
28701;BME280;15877;52.344;16.790;2022-10-16T08:01:14;100705.09;;;17.31;88.73
28701;BME280;15877;52.344;16.790;2022-10-16T08:03:48;100710.30;;;17.33;88.86
28701;BME280;15877;52.344;16.790;2022-10-16T08:06:21;100706.70;;;17.26;89.35
28701;BME280;15877;52.344;16.790;2022-10-16T08:08:58;100722.98;;;17.41;88.97
28701;BME280;15877;52.344;16.790;2022-10-16T08:11:30;100725.55;;;17.39;89.25
28701;BME280;15877;52.344;16.790;2022-10-16T08:14:03;100711.75;;;17.37;89.31
28701;BME280;15877;52.344;16.790;2022-10-16T08:16:36;100721.86;;;17.52;89.06
28701;BME280;15877;52.344;16.790;2022-10-16T08:19:08;100722.98;;;17.59;88.83
28701;BME280;15877;52.344;16.790;2022-10-16T08:21:40;100725.37;;;17.67;88.35
28701;BME280;15877;52.344;16.790;2022-10-16T08:24:12;100721.52;;;17.63;88.80
28701;BME280;15877;52.344;16.790;2022-10-16T08:26:45;100713.25;;;17.61;88.60
28701;BME280;15877;52.344;16.790;2022-10-16T08:29:17;100727.04;;;17.74;88.43
28701;BME280;15877;52.344;16.790;2022-10-16T08:31:49;100718.17;;;17.85;87.98
28701;BME280;15877;52.344;16.790;2022-10-16T08:34:21;100721.38;;;17.88;87.95
28701;BME280;15877;52.344;16.790;2022-10-16T08:36:54;100726.52;;;17.85;87.89
28701;BME280;15877;52.344;16.790;2022-10-16T08:39:26;100733.44;;;17.84;87.65
28701;BME280;15877;52.344;16.790;2022-10-16T08:42:13;100730.10;;;17.72;88.39
28701;BME280;15877;52.344;16.790;2022-10-16T08:45:02;100731.04;;;17.82;88.41
28701;BME280;15877;52.344;16.790;2022-10-16T08:47:47;100727.98;;;17.83;88.32
28701;BME280;15877;52.344;16.790;2022-10-16T08:50:24;100733.89;;;17.92;88.08
28701;BME280;15877;52.344;16.790;2022-10-16T08:52:58;100747.36;;;18.02;87.58
28701;BME280;15877;52.344;16.790;2022-10-16T08:55:33;100747.73;;;18.10;87.10
28701;BME280;15877;52.344;16.790;2022-10-16T08:58:14;100750.43;;;18.15;86.77
28701;BME280;15877;52.344;16.790;2022-10-16T09:00:49;100745.08;;;18.09;86.72
28701;BME280;15877;52.344;16.790;2022-10-16T09:03:28;100753.71;;;18.22;86.34
28701;BME280;15877;52.344;16.790;2022-10-16T09:06:12;100759.88;;;18.28;86.28
28701;BME280;15877;52.344;16.790;2022-10-16T09:09:00;100760.65;;;18.39;85.94
28701;BME280;15877;52.344;16.790;2022-10-16T09:11:41;100766.31;;;18.49;85.54
28701;BME280;15877;52.344;16.790;2022-10-16T09:14:37;100761.83;;;18.45;85.82
28701;BME280;15877;52.344;16.790;2022-10-16T09:17:25;100765.77;;;18.60;86.07
28701;BME280;15877;52.344;16.790;2022-10-16T09:20:12;100755.65;;;18.74;84.74
28701;BME280;15877;52.344;16.790;2022-10-16T09:22:45;100756.11;;;18.77;84.20
28701;BME280;15877;52.344;16.790;2022-10-16T09:25:20;100753.60;;;18.92;83.75
28701;BME280;15877;52.344;16.790;2022-10-16T09:27:54;100757.98;;;19.09;82.99
28701;BME280;15877;52.344;16.790;2022-10-16T09:30:28;100761.03;;;19.20;82.67
28701;BME280;15877;52.344;16.790;2022-10-16T09:33:01;100769.96;;;19.34;81.66
28701;BME280;15877;52.344;16.790;2022-10-16T09:35:37;100779.77;;;19.36;81.20
28701;BME280;15877;52.344;16.790;2022-10-16T09:38:10;100783.39;;;19.45;80.94
28701;BME280;15877;52.344;16.790;2022-10-16T09:40:53;100776.75;;;19.68;80.32
28701;BME280;15877;52.344;16.790;2022-10-16T09:43:36;100768.54;;;19.76;79.88
28701;BME280;15877;52.344;16.790;2022-10-16T09:46:25;100761.54;;;19.75;79.19
28701;BME280;15877;52.344;16.790;2022-10-16T09:49:00;100770.42;;;19.88;78.85
28701;BME280;15877;52.344;16.790;2022-10-16T09:51:34;100774.52;;;19.89;78.04
28701;BME280;15877;52.344;16.790;2022-10-16T09:54:16;100782.52;;;19.80;78.76
28701;BME280;15877;52.344;16.790;2022-10-16T09:56:49;100779.23;;;19.84;78.53
28701;BME280;15877;52.344;16.790;2022-10-16T09:59:23;100779.16;;;19.84;78.64
28701;BME280;15877;52.344;16.790;2022-10-16T10:02:00;100781.77;;;19.83;78.75
28701;BME280;15877;52.344;16.790;2022-10-16T10:04:41;100785.27;;;19.87;78.61
28701;BME280;15877;52.344;16.790;2022-10-16T10:07:23;100781.06;;;19.87;79.07
28701;BME280;15877;52.344;16.790;2022-10-16T10:10:21;100785.25;;;19.79;78.64
28701;BME280;15877;52.344;16.790;2022-10-16T10:12:55;100785.79;;;19.74;79.10
28701;BME280;15877;52.344;16.790;2022-10-16T10:15:33;100784.11;;;19.55;79.57
28701;BME280;15877;52.344;16.790;2022-10-16T10:18:21;100783.66;;;19.61;79.73
28701;BME280;15877;52.344;16.790;2022-10-16T10:21:02;100795.74;;;19.60;79.56
28701;BME280;15877;52.344;16.790;2022-10-16T10:23:36;100793.78;;;19.64;79.67
28701;BME280;15877;52.344;16.790;2022-10-16T10:26:13;100798.04;;;19.64;79.91
28701;BME280;15877;52.344;16.790;2022-10-16T10:28:57;100793.34;;;19.68;79.24
28701;BME280;15877;52.344;16.790;2022-10-16T10:31:38;100780.55;;;19.74;79.10
28701;BME280;15877;52.344;16.790;2022-10-16T10:34:38;100780.38;;;19.92;78.22
28701;BME280;15877;52.344;16.790;2022-10-16T10:37:26;100785.48;;;20.11;77.73
28701;BME280;15877;52.344;16.790;2022-10-16T10:40:09;100783.75;;;20.15;77.26
28701;BME280;15877;52.344;16.790;2022-10-16T10:42:50;100783.92;;;20.42;76.47
28701;BME280;15877;52.344;16.790;2022-10-16T10:45:41;100783.95;;;20.52;75.97
28701;BME280;15877;52.344;16.790;2022-10-16T10:48:32;100779.71;;;20.56;76.20
28701;BME280;15877;52.344;16.790;2022-10-16T10:51:21;100779.90;;;20.59;75.52
28701;BME280;15877;52.344;16.790;2022-10-16T10:54:02;100789.31;;;20.50;75.50
28701;BME280;15877;52.344;16.790;2022-10-16T10:56:47;100796.19;;;20.48;75.31
28701;BME280;15877;52.344;16.790;2022-10-16T11:02:40;100793.63;;;20.46;74.91
28701;BME280;15877;52.344;16.790;2022-10-16T11:05:26;100790.95;;;20.34;75.41
28701;BME280;15877;52.344;16.790;2022-10-16T11:08:02;100782.83;;;20.33;75.16
28701;BME280;15877;52.344;16.790;2022-10-16T11:10:44;100779.93;;;20.45;75.59
28701;BME280;15877;52.344;16.790;2022-10-16T11:13:30;100786.33;;;20.92;73.53
28701;BME280;15877;52.344;16.790;2022-10-16T11:16:06;100785.73;;;21.16;72.15
28701;BME280;15877;52.344;16.790;2022-10-16T11:18:52;100783.80;;;21.05;71.71
28701;BME280;15877;52.344;16.790;2022-10-16T11:21:28;100791.52;;;21.07;71.68
28701;BME280;15877;52.344;16.790;2022-10-16T11:24:04;100783.09;;;21.05;71.70
28701;BME280;15877;52.344;16.790;2022-10-16T11:26:41;100778.94;;;21.00;72.06
28701;BME280;15877;52.344;16.790;2022-10-16T11:29:17;100790.04;;;20.92;72.40
28701;BME280;15877;52.344;16.790;2022-10-16T11:31:54;100796.50;;;20.90;72.87
28701;BME280;15877;52.344;16.790;2022-10-16T11:34:31;100792.63;;;20.90;72.83
28701;BME280;15877;52.344;16.790;2022-10-16T11:37:11;100782.30;;;20.79;72.10
28701;BME280;15877;52.344;16.790;2022-10-16T11:39:45;100782.88;;;20.72;72.27
28701;BME280;15877;52.344;16.790;2022-10-16T11:42:24;100781.43;;;20.65;72.88
28701;BME280;15877;52.344;16.790;2022-10-16T11:45:03;100783.21;;;20.66;72.96
28701;BME280;15877;52.344;16.790;2022-10-16T11:47:43;100786.05;;;20.65;73.02
28701;BME280;15877;52.344;16.790;2022-10-16T11:50:34;100781.41;;;20.62;72.30
28701;BME280;15877;52.344;16.790;2022-10-16T11:53:16;100787.98;;;20.71;72.77
28701;BME280;15877;52.344;16.790;2022-10-16T11:55:50;100770.00;;;20.47;72.29
28701;BME280;15877;52.344;16.790;2022-10-16T11:58:26;100796.79;;;20.70;72.21
28701;BME280;15877;52.344;16.790;2022-10-16T12:01:05;100803.05;;;20.79;70.91
28701;BME280;15877;52.344;16.790;2022-10-16T12:03:48;100802.08;;;20.79;70.63
28701;BME280;15877;52.344;16.790;2022-10-16T12:06:33;100796.15;;;20.87;70.59
28701;BME280;15877;52.344;16.790;2022-10-16T12:09:09;100796.57;;;20.91;70.62
28701;BME280;15877;52.344;16.790;2022-10-16T12:11:45;100800.78;;;20.90;70.28
28701;BME280;15877;52.344;16.790;2022-10-16T12:14:35;100801.52;;;20.90;70.09
28701;BME280;15877;52.344;16.790;2022-10-16T12:17:36;100798.94;;;21.01;69.66
28701;BME280;15877;52.344;16.790;2022-10-16T12:20:27;100798.23;;;21.17;68.32
28701;BME280;15877;52.344;16.790;2022-10-16T12:23:04;100811.79;;;21.17;66.55
28701;BME280;15877;52.344;16.790;2022-10-16T12:25:38;100813.80;;;21.17;65.90
28701;BME280;15877;52.344;16.790;2022-10-16T12:28:22;100814.58;;;21.15;65.74
28701;BME280;15877;52.344;16.790;2022-10-16T12:30:59;100812.60;;;21.11;66.16
28701;BME280;15877;52.344;16.790;2022-10-16T12:33:33;100812.04;;;21.17;67.08
28701;BME280;15877;52.344;16.790;2022-10-16T12:36:12;100810.58;;;21.06;67.82
28701;BME280;15877;52.344;16.790;2022-10-16T12:38:49;100810.14;;;21.15;68.01
28701;BME280;15877;52.344;16.790;2022-10-16T12:41:28;100817.45;;;21.27;68.04
28701;BME280;15877;52.344;16.790;2022-10-16T12:44:01;100813.75;;;21.61;68.20
28701;BME280;15877;52.344;16.790;2022-10-16T12:46:39;100801.14;;;21.86;66.92
28701;BME280;15877;52.344;16.790;2022-10-16T12:49:29;100809.30;;;21.75;66.56
28701;BME280;15877;52.344;16.790;2022-10-16T12:52:01;100817.67;;;21.58;66.68
28701;BME280;15877;52.344;16.790;2022-10-16T12:54:37;100814.76;;;21.63;66.85
28701;BME280;15877;52.344;16.790;2022-10-16T12:57:31;100823.70;;;21.76;66.68
28701;BME280;15877;52.344;16.790;2022-10-16T13:00:17;100827.08;;;21.56;66.67
28701;BME280;15877;52.344;16.790;2022-10-16T13:03:27;100831.20;;;21.41;66.61
28701;BME280;15877;52.344;16.790;2022-10-16T13:06:13;100834.79;;;21.44;66.49
28701;BME280;15877;52.344;16.790;2022-10-16T13:08:58;100835.52;;;21.44;66.67
28701;BME280;15877;52.344;16.790;2022-10-16T13:11:45;100826.38;;;21.29;66.69
28701;BME280;15877;52.344;16.790;2022-10-16T13:14:38;100839.23;;;21.34;66.93
28701;BME280;15877;52.344;16.790;2022-10-16T13:17:20;100833.09;;;21.39;67.08
28701;BME280;15877;52.344;16.790;2022-10-16T13:20:02;100834.16;;;21.43;66.88
28701;BME280;15877;52.344;16.790;2022-10-16T13:22:43;100837.58;;;21.41;67.32
28701;BME280;15877;52.344;16.790;2022-10-16T13:25:32;100831.80;;;21.28;67.67
28701;BME280;15877;52.344;16.790;2022-10-16T13:28:09;100836.49;;;21.29;67.60
28701;BME280;15877;52.344;16.790;2022-10-16T13:30:44;100841.63;;;21.35;67.81